ΕΜΥ, Εθνική Μετεωρολογική Υπηρεσία - Δελτία Καιρού, Προγνώσεις

ΑΕΡΟΝΑΥΤΙΛΙΑ

GREEK AIRPORTS CODES

TAF LGKR 201100Z 2012/2112 32015KT 9999 FEW020 SCT040 TEMPO 2012/2110 34015G28KT PROB40 TEMPO 2012/2015 5000 RA FEW015TCU BKN020 BKN070=

EUROPEAN AIRPORTS CODES